Time;durP1;ratioP1;P1;durP2;ratioP2;P2;SDS_P1;SDS_P2;PMS_P1;PMS_P2;Temp;Humidity;BMP_temperature;BMP_pressure;BME280_temperature;BME280_humidity;BME280_pressure;Samples;Min_cycle;Max_cycle;Signal;HPM_P1;HPM_P2
2021/04/21 00:02:15;;;;;;;8.45;6.00;;;5.60;99.90;;;;;;5077827;28;20166;-85
2021/04/21 00:04:43;;;;;;;10.82;5.70;;;5.50;99.90;;;;;;5076873;28;20027;-83
2021/04/21 00:07:08;;;;;;;7.63;6.25;;;5.50;99.90;;;;;;5077082;28;20025;-84
2021/04/21 00:09:35;;;;;;;6.47;5.32;;;5.40;99.90;;;;;;5076596;28;20025;-85
2021/04/21 00:12:02;;;;;;;5.70;4.68;;;5.40;99.90;;;;;;5076598;28;20056;-83
2021/04/21 00:14:27;;;;;;;5.75;4.47;;;5.50;99.90;;;;;;5076711;28;20051;-84
2021/04/21 00:16:58;;;;;;;8.45;4.55;;;5.40;99.90;;;;;;5076440;28;20021;-85
2021/04/21 00:19:26;;;;;;;5.75;4.32;;;5.50;99.90;;;;;;5075759;28;20380;-85
2021/04/21 00:21:55;;;;;;;6.05;5.10;;;5.50;99.90;;;;;;5076459;28;20033;-83
2021/04/21 00:24:21;;;;;;;10.75;6.30;;;5.40;99.90;;;;;;5076348;28;20051;-85
2021/04/21 00:26:48;;;;;;;6.18;5.28;;;5.30;99.90;;;;;;5076631;28;20028;-84
2021/04/21 00:29:16;;;;;;;7.45;5.72;;;5.30;99.90;;;;;;5076201;28;20024;-83
2021/04/21 00:31:44;;;;;;;6.65;5.75;;;5.20;99.90;;;;;;5076144;28;20032;-84
2021/04/21 00:34:12;;;;;;;6.80;5.80;;;5.20;99.90;;;;;;5076349;28;20021;-83
2021/04/21 00:36:41;;;;;;;6.60;5.65;;;5.10;99.90;;;;;;5076036;28;20029;-85
2021/04/21 00:39:10;;;;;;;8.93;6.40;;;5.10;99.90;;;;;;5076007;28;20033;-83
2021/04/21 00:42:00;;;;;;;9.95;6.68;;;5.00;99.90;;;;;;5076219;28;20036;-84
2021/04/21 00:44:50;;;;;;;10.07;7.45;;;5.00;99.90;;;;;;5076034;28;20078;-86
2021/04/21 00:47:24;;;;;;;9.88;7.47;;;5.00;99.90;;;;;;5075830;28;20087;-85
2021/04/21 00:49:55;;;;;;;9.77;6.97;;;4.90;99.90;;;;;;5075988;28;20467;-84
2021/04/21 00:52:51;;;;;;;8.05;6.95;;;4.90;99.90;;;;;;5075935;28;20028;-84
2021/04/21 00:55:33;;;;;;;7.50;6.28;;;4.70;99.90;;;;;;5075985;28;20025;-84
2021/04/21 00:58:17;;;;;;;8.82;6.90;;;4.70;99.90;;;;;;5075836;28;20029;-83
2021/04/21 01:00:47;;;;;;;15.15;7.15;;;4.60;99.90;;;;;;5075614;28;20098;-83
2021/04/21 01:03:24;;;;;;;8.80;7.47;;;4.60;99.90;;;;;;5075827;28;20076;-85
2021/04/21 01:06:15;;;;;;;8.43;6.28;;;4.50;99.90;;;;;;5075728;28;20097;-83
2021/04/21 01:08:50;;;;;;;9.77;7.30;;;4.50;99.90;;;;;;5074717;28;20025;-84
2021/04/21 01:11:33;;;;;;;10.50;7.28;;;4.50;99.90;;;;;;5075232;28;20021;-84
2021/04/21 01:14:09;;;;;;;9.73;7.40;;;4.50;99.90;;;;;;5075175;28;20475;-87
2021/04/21 01:16:36;;;;;;;8.93;7.10;;;4.50;99.90;;;;;;5075060;28;20115;-83
2021/04/21 01:19:09;;;;;;;9.75;7.70;;;4.50;99.90;;;;;;5075291;28;20028;-85
2021/04/21 01:21:45;;;;;;;10.50;8.30;;;4.50;99.90;;;;;;5075469;28;20032;-85
2021/04/21 01:24:39;;;;;;;8.82;7.03;;;4.50;99.90;;;;;;5075265;28;20052;-84
2021/04/21 01:27:11;;;;;;;11.35;7.85;;;4.40;99.90;;;;;;5074957;28;20028;-84
2021/04/21 01:29:41;;;;;;;10.23;7.60;;;4.30;99.90;;;;;;5074829;28;20017;-85
2021/04/21 01:32:28;;;;;;;12.38;7.43;;;4.30;99.90;;;;;;5075106;28;20032;-84
2021/04/21 01:34:56;;;;;;;7.47;6.65;;;4.20;99.90;;;;;;5074908;28;20021;-86
2021/04/21 01:37:26;;;;;;;10.73;7.45;;;4.20;99.90;;;;;;5075032;28;20032;-84
2021/04/21 01:40:01;;;;;;;10.50;7.07;;;4.10;99.90;;;;;;5074902;28;20041;-83
2021/04/21 01:42:32;;;;;;;9.73;7.45;;;4.20;99.90;;;;;;5074851;28;20115;-87
2021/04/21 01:45:00;;;;;;;10.88;7.80;;;4.10;99.90;;;;;;5075205;28;20033;-85
2021/04/21 01:47:26;;;;;;;9.05;6.82;;;4.10;99.90;;;;;;5074825;28;20017;-84
2021/04/21 01:50:05;;;;;;;8.90;7.15;;;4.10;99.90;;;;;;5075015;28;20028;-84
2021/04/21 01:52:36;;;;;;;9.27;7.07;;;4.00;99.90;;;;;;5074625;28;20040;-84
2021/04/21 01:55:14;;;;;;;9.50;7.03;;;4.00;99.90;;;;;;5074762;28;20110;-84
2021/04/21 01:57:48;;;;;;;10.43;7.82;;;3.90;99.90;;;;;;5074471;28;20453;-82
2021/04/21 02:00:28;;;;;;;9.02;7.38;;;3.90;99.90;;;;;;5074523;28;20056;-84
2021/04/21 02:03:07;;;;;;;9.27;7.18;;;3.90;99.90;;;;;;5074130;28;20056;-84
2021/04/21 02:05:47;;;;;;;10.15;8.52;;;3.90;99.90;;;;;;5074458;28;20033;-84
2021/04/21 02:08:22;;;;;;;10.52;8.10;;;3.90;99.90;;;;;;5074402;28;20032;-84
2021/04/21 02:10:51;;;;;;;;;;;3.90;99.90;;;;;;5074955;28;20036;-82
2021/04/21 02:13:39;;;;;;;9.13;7.68;;;3.80;99.90;;;;;;5074443;28;19904;-85
2021/04/21 02:16:17;;;;;;;8.50;6.63;;;3.90;99.90;;;;;;5074392;28;20471;-86
2021/04/21 02:18:52;;;;;;;9.32;7.53;;;3.70;99.90;;;;;;5074324;28;20025;-85
2021/04/21 02:21:27;;;;;;;9.33;7.50;;;3.70;99.90;;;;;;5073957;28;20033;-86
2021/04/21 02:24:07;;;;;;;11.13;7.43;;;3.70;99.90;;;;;;5074285;28;20056;-84
2021/04/21 02:26:42;;;;;;;9.30;7.25;;;3.70;99.90;;;;;;5074463;28;20055;-86
2021/04/21 02:29:26;;;;;;;11.23;7.10;;;3.60;99.90;;;;;;5075373;28;20021;-83
2021/04/21 02:32:20;;;;;;;12.63;6.70;;;3.60;99.90;;;;;;5074205;28;20025;-84
2021/04/21 02:35:05;;;;;;;10.70;7.05;;;3.60;99.90;;;;;;5073550;28;20460;-85
2021/04/21 02:37:54;;;;;;;8.55;6.53;;;3.60;99.90;;;;;;5073886;28;20025;-83
2021/04/21 02:40:35;;;;;;;7.40;6.53;;;3.50;99.90;;;;;;5073871;28;20063;-84
2021/04/21 02:43:11;;;;;;;7.53;5.95;;;3.50;99.90;;;;;;5074069;28;20024;-83
2021/04/21 02:45:44;;;;;;;6.30;5.18;;;3.50;99.90;;;;;;5074262;28;20078;-84
2021/04/21 02:48:23;;;;;;;7.13;5.88;;;3.40;99.90;;;;;;5074136;28;20028;-84
2021/04/21 02:50:54;;;;;;;9.00;5.57;;;3.40;99.90;;;;;;5074265;28;20029;-84
2021/04/21 02:53:40;;;;;;;7.68;5.65;;;3.30;99.90;;;;;;5074335;28;20050;-83
2021/04/21 02:56:22;;;;;;;6.63;5.05;;;3.20;99.90;;;;;;5074134;28;20025;-83
2021/04/21 02:59:25;;;;;;;5.80;4.75;;;3.20;99.90;;;;;;5074664;28;20021;-85
2021/04/21 03:02:17;;;;;;;5.50;4.75;;;3.10;99.90;;;;;;5073894;28;20040;-84
2021/04/21 03:05:07;;;;;;;5.97;5.25;;;3.00;99.90;;;;;;5074469;28;20028;-85
2021/04/21 03:07:35;;;;;;;6.65;5.07;;;3.00;99.90;;;;;;5074281;28;20027;-84
2021/04/21 03:10:09;;;;;;;8.80;5.45;;;2.90;99.90;;;;;;5073928;28;20028;-83
2021/04/21 03:12:37;;;;;;;6.63;5.45;;;2.90;99.90;;;;;;5074257;28;20021;-83
2021/04/21 03:15:11;;;;;;;10.40;6.50;;;2.90;99.90;;;;;;5074234;28;20017;-85
2021/04/21 03:17:41;;;;;;;8.20;5.53;;;2.90;99.90;;;;;;5073882;28;20533;-82
2021/04/21 03:20:19;;;;;;;10.30;6.28;;;3.00;99.90;;;;;;5073764;28;20032;-83
2021/04/21 03:22:49;;;;;;;7.97;6.15;;;2.90;99.90;;;;;;5074100;28;20024;-84
2021/04/21 03:25:20;;;;;;;7.93;5.72;;;3.00;99.90;;;;;;5073844;28;20044;-84
2021/04/21 03:27:51;;;;;;;8.38;6.72;;;3.00;99.90;;;;;;5073774;28;20593;-83
2021/04/21 03:30:18;;;;;;;6.88;5.65;;;3.00;99.90;;;;;;5073956;28;20127;-83
2021/04/21 03:32:49;;;;;;;11.85;6.88;;;3.00;99.90;;;;;;5074498;28;20078;-84
2021/04/21 03:35:17;;;;;;;7.68;6.85;;;3.00;99.90;;;;;;5077547;28;20016;-83
2021/04/21 03:38:04;;;;;;;7.53;5.97;;;3.00;99.90;;;;;;5077350;28;20040;-87
2021/04/21 03:40:30;;;;;;;12.07;6.57;;;2.90;99.90;;;;;;5077671;28;20033;-84
2021/04/21 03:42:56;;;;;;;6.25;5.65;;;2.90;99.90;;;;;;5077196;28;20021;-84
2021/04/21 03:45:23;;;;;;;7.25;5.97;;;2.80;99.90;;;;;;5077466;28;20074;-84
2021/04/21 03:47:51;;;;;;;6.13;5.50;;;3.00;99.90;;;;;;5077002;28;20048;-85
2021/04/21 03:50:17;;;;;;;8.05;5.60;;;2.90;99.90;;;;;;5077298;28;20027;-84
2021/04/21 03:52:46;;;;;;;6.95;5.05;;;2.90;99.90;;;;;;5077368;28;20031;-84
2021/04/21 03:55:13;;;;;;;7.55;6.18;;;2.80;99.90;;;;;;5077145;28;20107;-85
2021/04/21 03:57:52;;;;;;;7.40;5.90;;;2.80;99.90;;;;;;5077005;28;20386;-83
2021/04/21 04:00:20;;;;;;;6.55;5.43;;;2.80;99.90;;;;;;5076896;28;20033;-84
2021/04/21 04:02:57;;;;;;;6.25;4.82;;;2.80;99.90;;;;;;5076513;28;20082;-84
2021/04/21 04:06:01;;;;;;;6.20;5.00;;;2.70;99.90;;;;;;5077077;28;20384;-84
2021/04/21 04:08:34;;;;;;;4.72;4.22;;;2.80;99.90;;;;;;5076797;28;20031;-82
2021/04/21 04:11:01;;;;;;;7.63;4.32;;;2.80;99.90;;;;;;5076944;28;20020;-83
2021/04/21 04:13:29;;;;;;;9.65;7.07;;;2.70;99.90;;;;;;5076937;28;20017;-85
2021/04/21 04:15:57;;;;;;;6.68;5.70;;;2.70;99.90;;;;;;5078335;28;20021;-86
2021/04/21 04:18:24;;;;;;;7.70;6.90;;;3.40;99.90;;;;;;5078140;28;20043;-82
2021/04/21 04:20:51;;;;;;;8.50;5.80;;;3.50;99.90;;;;;;5077547;28;20813;-83
2021/04/21 04:23:19;;;;;;;7.03;5.15;;;3.30;99.90;;;;;;5075705;28;20032;-83
2021/04/21 04:25:47;;;;;;;7.93;5.72;;;3.10;99.90;;;;;;5075266;28;20024;-84
2021/04/21 04:28:14;;;;;;;6.43;5.65;;;3.00;99.90;;;;;;5076655;28;20038;-83
2021/04/21 04:30:42;;;;;;;8.02;5.47;;;2.90;99.90;;;;;;5075478;28;20456;-84
2021/04/21 04:33:09;;;;;;;6.75;6.05;;;2.90;99.90;;;;;;5074622;28;20111;-81
2021/04/21 04:35:36;;;;;;;6.95;6.00;;;2.90;99.90;;;;;;5078537;28;20115;-82
2021/04/21 04:38:02;;;;;;;6.55;5.65;;;2.90;99.90;;;;;;5076399;28;20032;-82
2021/04/21 04:40:29;;;;;;;6.97;5.93;;;2.80;99.90;;;;;;5075965;28;20032;-82
2021/04/21 04:42:56;;;;;;;9.45;6.65;;;2.80;99.90;;;;;;5075102;28;20115;-85
2021/04/21 04:45:27;;;;;;;12.55;9.13;;;2.90;99.90;;;;;;5075837;28;20024;-82
2021/04/21 04:47:56;;;;;;;15.93;11.27;;;2.90;99.90;;;;;;5075752;28;20535;-83
2021/04/21 04:50:23;;;;;;;21.20;12.80;;;2.80;99.90;;;;;;5075837;28;20051;-85
2021/04/21 04:52:52;;;;;;;20.70;13.02;;;2.80;99.90;;;;;;5075328;28;20472;-81
2021/04/21 04:55:20;;;;;;;12.73;9.52;;;2.90;99.90;;;;;;5076363;28;20028;-80
2021/04/21 04:57:48;;;;;;;14.18;10.25;;;2.90;99.90;;;;;;5075146;28;20017;-84
2021/04/21 05:00:20;;;;;;;13.95;10.45;;;2.90;99.90;;;;;;5075147;28;20033;-82
2021/04/21 05:03:06;;;;;;;21.48;12.82;;;3.00;99.90;;;;;;5076457;28;20049;-81
2021/04/21 05:05:35;;;;;;;19.85;10.55;;;3.00;99.90;;;;;;5075475;28;20024;-82
2021/04/21 05:08:07;;;;;;;10.40;8.00;;;3.10;99.90;;;;;;5075324;28;20058;-82
2021/04/21 05:10:36;;;;;;;9.73;8.23;;;3.10;99.90;;;;;;5074936;28;20436;-82
2021/04/21 05:13:08;;;;;;;11.65;10.23;;;3.20;99.90;;;;;;5074756;28;20487;-81
2021/04/21 05:15:52;;;;;;;13.48;9.30;;;3.10;99.90;;;;;;5075099;28;20013;-84
2021/04/21 05:18:26;;;;;;;8.50;7.00;;;3.20;99.90;;;;;;5075289;28;20035;-82
2021/04/21 05:21:10;;;;;;;11.68;7.57;;;3.20;99.90;;;;;;5075082;28;20499;-81
2021/04/21 05:23:57;;;;;;;11.65;7.43;;;3.10;99.90;;;;;;5074950;28;20024;-84
2021/04/21 05:26:41;;;;;;;11.65;8.98;;;3.30;99.90;;;;;;5074405;28;20123;-83
2021/04/21 05:29:38;;;;;;;11.05;8.73;;;3.40;99.90;;;;;;5074369;28;20127;-81
2021/04/21 05:32:41;;;;;;;10.85;7.35;;;3.50;99.90;;;;;;5074418;28;20029;-83
2021/04/21 05:35:35;;;;;;;13.80;8.20;;;3.60;99.90;;;;;;5074288;28;20024;-82
2021/04/21 05:38:31;;;;;;;15.93;8.80;;;3.80;99.90;;;;;;5074179;28;20027;-81
2021/04/21 05:41:34;;;;;;;11.80;8.00;;;3.90;99.90;;;;;;5074236;28;20432;-81
2021/04/21 05:44:34;;;;;;;9.55;6.97;;;4.20;99.90;;;;;;5075542;28;20032;-84
2021/04/21 05:47:30;;;;;;;10.60;8.98;;;4.40;99.90;;;;;;5073712;28;20055;-81
2021/04/21 05:50:27;;;;;;;10.40;7.72;;;4.50;99.90;;;;;;5074558;28;20025;-84
2021/04/21 05:53:13;;;;;;;;;;;4.60;99.90;;;;;;5074962;28;20025;-83
2021/04/21 05:55:39;;;;;;;8.77;6.37;;;4.70;99.90;;;;;;5074399;28;19912;-84
2021/04/21 05:58:23;;;;;;;13.20;7.50;;;4.80;99.90;;;;;;5075272;28;20249;-84
2021/04/21 06:01:07;;;;;;;8.70;6.72;;;4.80;99.90;;;;;;5074012;28;20032;-84
2021/04/21 06:03:37;;;;;;;8.68;6.70;;;5.00;99.90;;;;;;5074440;28;20106;-83
2021/04/21 06:06:04;;;;;;;8.43;7.07;;;5.00;99.90;;;;;;5074251;28;20032;-82
2021/04/21 06:08:30;;;;;;;9.52;7.25;;;5.20;99.90;;;;;;5073924;28;20111;-83
2021/04/21 06:10:56;;;;;;;10.68;7.13;;;5.30;99.90;;;;;;5074936;28;20012;-85
2021/04/21 06:13:27;;;;;;;14.90;7.35;;;5.50;99.90;;;;;;5075740;28;20029;-83
2021/04/21 06:15:53;;;;;;;13.10;8.15;;;5.70;99.90;;;;;;5075161;28;20107;-83
2021/04/21 06:18:21;;;;;;;10.25;7.35;;;5.90;99.90;;;;;;5074807;28;20085;-83
2021/04/21 06:20:47;;;;;;;11.07;8.13;;;6.10;99.90;;;;;;5074059;28;20280;-84
2021/04/21 06:23:14;;;;;;;16.95;7.38;;;6.30;99.90;;;;;;5073539;28;20021;-83
2021/04/21 06:25:44;;;;;;;11.50;8.10;;;6.50;99.90;;;;;;5073905;28;20020;-85
2021/04/21 06:28:13;;;;;;;9.95;7.72;;;6.70;99.90;;;;;;5073744;28;20119;-84
2021/04/21 06:30:39;;;;;;;12.77;8.55;;;6.80;99.90;;;;;;5073981;28;20024;-88
2021/04/21 06:33:07;;;;;;;13.68;8.65;;;7.00;99.90;;;;;;5074332;28;20111;-85
2021/04/21 06:35:34;;;;;;;12.75;8.63;;;7.20;99.90;;;;;;5073340;28;20050;-83
2021/04/21 06:38:01;;;;;;;11.38;8.25;;;7.30;99.90;;;;;;5073798;28;20016;-85
2021/04/21 06:40:28;;;;;;;13.30;7.07;;;7.40;99.90;;;;;;5074106;28;20361;-80
2021/04/21 06:42:56;;;;;;;10.93;8.57;;;7.50;99.90;;;;;;5073203;28;20035;-81
2021/04/21 06:45:41;;;;;;;10.65;7.53;;;7.70;99.90;;;;;;5073083;28;20060;-80
2021/04/21 06:48:09;;;;;;;10.02;7.35;;;7.80;99.90;;;;;;5072076;28;20039;-80
2021/04/21 06:50:39;;;;;;;9.85;6.93;;;8.00;99.90;;;;;;5072752;28;20047;-81
2021/04/21 06:53:08;;;;;;;11.35;6.95;;;8.10;99.90;;;;;;5073512;28;20048;-81
2021/04/21 06:55:35;;;;;;;8.10;6.95;;;8.30;99.90;;;;;;5071236;28;20393;-81
2021/04/21 06:58:14;;;;;;;8.85;6.82;;;8.60;99.90;;;;;;5072723;28;20025;-85
2021/04/21 07:00:40;;;;;;;9.57;7.50;;;8.80;99.90;;;;;;5073183;28;20501;-83
2021/04/21 07:03:07;;;;;;;9.23;6.80;;;9.00;99.90;;;;;;5074186;28;20068;-82
2021/04/21 07:05:42;;;;;;;8.85;7.30;;;9.20;99.90;;;;;;5073408;28;20034;-82
2021/04/21 07:08:20;;;;;;;8.25;6.57;;;9.40;99.90;;;;;;5075700;28;20024;-82
2021/04/21 07:10:57;;;;;;;9.35;6.40;;;9.60;99.90;;;;;;5077306;28;20032;-87
2021/04/21 07:13:45;;;;;;;8.38;6.70;;;9.90;99.90;;;;;;5077105;28;20039;-83
2021/04/21 07:16:19;;;;;;;7.78;6.00;;;10.00;99.90;;;;;;5076729;28;20070;-85
2021/04/21 07:18:59;;;;;;;8.93;6.85;;;10.30;99.90;;;;;;5075123;28;20028;-83
2021/04/21 07:21:29;;;;;;;9.05;7.47;;;10.50;99.90;;;;;;5075416;28;20051;-85
2021/04/21 07:23:59;;;;;;;8.80;6.80;;;10.70;99.90;;;;;;5075670;28;20518;-83
2021/04/21 07:26:29;;;;;;;7.10;6.35;;;10.90;99.70;;;;;;5075400;28;20057;-83
2021/04/21 07:28:56;;;;;;;10.00;6.07;;;11.10;99.40;;;;;;5075279;28;20182;-82
2021/04/21 07:31:21;;;;;;;7.70;6.43;;;11.20;98.70;;;;;;5075556;28;20491;-83
2021/04/21 07:33:49;;;;;;;5.53;5.03;;;11.30;99.30;;;;;;5076331;28;20016;-82
2021/04/21 07:36:19;;;;;;;7.82;5.50;;;11.50;98.70;;;;;;5074942;28;20029;-84
2021/04/21 07:38:49;;;;;;;5.97;5.18;;;11.60;98.70;;;;;;5074984;28;20025;-83
2021/04/21 07:41:35;;;;;;;7.35;5.93;;;11.80;99.40;;;;;;5074796;28;20103;-82
2021/04/21 07:44:02;;;;;;;5.45;4.93;;;11.90;99.00;;;;;;5075303;28;20050;-82
2021/04/21 07:46:28;;;;;;;6.93;5.38;;;12.20;97.50;;;;;;5074736;28;20028;-82
2021/04/21 07:48:54;;;;;;;6.65;5.95;;;12.30;97.40;;;;;;5075008;28;20348;-83
2021/04/21 07:51:29;;;;;;;5.60;4.93;;;12.40;98.70;;;;;;5074794;28;20025;-86
2021/04/21 07:54:02;;;;;;;6.15;4.90;;;12.50;98.30;;;;;;5074929;28;20028;-84
2021/04/21 07:56:36;;;;;;;6.57;4.78;;;12.80;97.30;;;;;;5074765;28;20472;-84
2021/04/21 07:59:33;;;;;;;7.07;4.85;;;13.10;98.00;;;;;;5074856;28;20048;-85
2021/04/21 08:02:19;;;;;;;9.07;4.97;;;13.30;95.10;;;;;;5074339;28;20442;-84
2021/04/21 08:05:10;;;;;;;6.28;4.38;;;13.50;95.50;;;;;;5068532;28;20472;-80
2021/04/21 08:07:52;;;;;;;9.10;4.57;;;13.70;93.60;;;;;;5073189;28;20033;-81
2021/04/21 08:10:23;;;;;;;5.30;4.80;;;13.90;92.70;;;;;;5054521;28;20309;-82
2021/04/21 08:12:50;;;;;;;7.43;4.88;;;14.00;92.80;;;;;;5060732;28;20024;-83
2021/04/21 08:15:16;;;;;;;5.55;4.30;;;14.10;91.00;;;;;;5075419;28;20020;-85
2021/04/21 08:17:54;;;;;;;6.10;4.60;;;14.10;91.80;;;;;;5074339;28;20027;-83
2021/04/21 08:20:33;;;;;;;7.50;4.43;;;14.30;90.60;;;;;;5074055;28;20480;-83
2021/04/21 08:23:01;;;;;;;4.38;3.90;;;14.40;88.70;;;;;;5074368;28;20379;-83
2021/04/21 08:25:27;;;;;;;5.53;4.10;;;14.60;84.70;;;;;;5074207;28;20434;-84
2021/04/21 08:27:54;;;;;;;7.65;4.38;;;14.60;81.50;;;;;;5074359;28;20028;-84
2021/04/21 08:30:20;;;;;;;4.97;4.22;;;14.60;78.50;;;;;;5074195;28;20063;-84
2021/04/21 08:32:46;;;;;;;4.90;4.05;;;14.80;84.40;;;;;;5074363;28;20468;-82
2021/04/21 08:35:13;;;;;;;5.40;3.60;;;14.80;81.30;;;;;;5075071;28;20032;-89
2021/04/21 08:37:39;;;;;;;6.55;3.83;;;14.90;81.60;;;;;;5075043;28;20024;-87
2021/04/21 08:40:06;;;;;;;5.25;3.85;;;15.20;81.40;;;;;;5076140;28;20032;-87
2021/04/21 08:42:32;;;;;;;4.13;3.72;;;15.40;72.10;;;;;;5088513;28;20036;-88
2021/04/21 08:44:59;;;;;;;4.13;3.60;;;15.40;77.60;;;;;;5080490;28;20024;-88
2021/04/21 08:47:25;;;;;;;4.40;3.70;;;15.60;75.70;;;;;;5076124;28;20021;-86
2021/04/21 08:49:55;;;;;;;4.22;3.53;;;15.70;70.40;;;;;;5075103;28;20127;-82
2021/04/21 08:52:24;;;;;;;5.43;3.80;;;15.80;73.40;;;;;;5074710;28;20021;-82
2021/04/21 08:54:54;;;;;;;3.88;3.47;;;15.80;71.20;;;;;;5074765;28;20055;-82
2021/04/21 08:57:20;;;;;;;4.72;3.58;;;15.90;71.00;;;;;;5073908;28;20020;-81
2021/04/21 08:59:47;;;;;;;6.15;2.78;;;15.90;60.90;;;;;;5075793;28;20040;-81
2021/04/21 09:02:15;;;;;;;3.70;2.60;;;15.90;58.60;;;;;;5074202;28;20048;-81
2021/04/21 09:04:41;;;;;;;2.97;2.67;;;15.90;57.30;;;;;;5074538;28;20055;-83
2021/04/21 09:07:08;;;;;;;5.68;3.05;;;16.00;56.90;;;;;;5074282;28;20040;-82
2021/04/21 09:09:34;;;;;;;5.50;3.38;;;16.10;63.00;;;;;;5073817;28;20016;-84
2021/04/21 09:12:02;;;;;;;5.78;3.20;;;16.10;61.40;;;;;;5074918;28;20104;-84
2021/04/21 09:14:28;;;;;;;4.78;2.90;;;16.20;59.90;;;;;;5074174;28;20116;-84
2021/04/21 09:16:55;;;;;;;6.43;2.90;;;16.30;59.20;;;;;;5074125;28;20048;-84
2021/04/21 09:19:21;;;;;;;4.00;2.80;;;16.50;58.60;;;;;;5074545;28;20020;-84
2021/04/21 09:21:46;;;;;;;3.30;2.95;;;16.40;54.80;;;;;;5074407;28;20126;-84
2021/04/21 09:24:13;;;;;;;4.68;3.20;;;16.50;53.70;;;;;;5075393;28;20025;-85
2021/04/21 09:26:39;;;;;;;5.47;3.70;;;16.60;55.00;;;;;;5075126;28;20023;-87
2021/04/21 09:29:05;;;;;;;3.83;2.92;;;16.60;55.40;;;;;;5075012;28;20020;-82
2021/04/21 09:31:34;;;;;;;2.92;2.60;;;16.60;51.40;;;;;;5073343;28;20031;-82
2021/04/21 09:34:26;;;;;;;5.88;2.88;;;16.60;47.90;;;;;;5074290;28;20016;-86
2021/04/21 09:36:52;;;;;;;4.63;2.80;;;16.60;51.30;;;;;;5070929;28;20028;-87
2021/04/21 09:39:24;;;;;;;5.57;2.60;;;16.60;49.70;;;;;;5073252;28;20086;-85
2021/04/21 09:41:59;;;;;;;3.80;2.80;;;16.70;51.10;;;;;;5072928;28;20029;-86
2021/04/21 09:44:28;;;;;;;5.55;2.75;;;16.70;47.70;;;;;;5073148;28;20128;-85
2021/04/21 09:46:54;;;;;;;6.25;2.85;;;16.80;47.00;;;;;;5073199;28;20044;-83
2021/04/21 09:49:54;;;;;;;3.40;2.58;;;16.90;44.10;;;;;;5074065;28;20098;-83
2021/04/21 09:52:22;;;;;;;3.70;2.60;;;17.00;48.20;;;;;;5061846;28;20056;-88
2021/04/21 09:54:50;;;;;;;4.90;2.67;;;17.10;45.70;;;;;;5072569;28;20031;-84
2021/04/21 09:57:38;;;;;;;6.72;2.80;;;17.10;47.60;;;;;;5072635;28;20086;-85
2021/04/21 10:00:07;;;;;;;4.38;2.80;;;17.00;46.00;;;;;;5074252;28;20028;-81
2021/04/21 10:02:38;;;;;;;3.58;2.67;;;17.10;46.70;;;;;;5073536;28;20411;-85
2021/04/21 10:05:30;;;;;;;5.50;3.53;;;17.10;45.90;;;;;;5074264;28;20024;-85
2021/04/21 10:08:16;;;;;;;4.50;3.15;;;17.20;43.80;;;;;;5073070;28;20069;-85
2021/04/21 10:10:47;;;;;;;2.97;2.53;;;17.30;45.80;;;;;;5073754;28;20480;-84
2021/04/21 10:13:15;;;;;;;5.30;2.90;;;17.40;43.10;;;;;;5073555;28;20036;-85
2021/04/21 10:15:41;;;;;;;4.88;2.80;;;17.50;48.00;;;;;;5073873;28;20036;-85
2021/04/21 10:18:10;;;;;;;3.70;2.60;;;17.60;45.70;;;;;;5073619;28;20024;-85
2021/04/21 10:20:36;;;;;;;3.38;2.63;;;17.70;47.30;;;;;;5073386;28;20067;-84
2021/04/21 10:23:04;;;;;;;3.38;2.17;;;17.80;47.80;;;;;;5073625;28;20028;-85
2021/04/21 10:25:30;;;;;;;3.35;2.63;;;17.90;44.40;;;;;;5073547;28;20031;-85
2021/04/21 10:27:56;;;;;;;7.60;2.72;;;18.10;46.60;;;;;;5073511;28;20021;-84
2021/04/21 10:30:22;;;;;;;4.30;2.20;;;18.20;44.20;;;;;;5073510;28;20024;-84
2021/04/21 10:32:48;;;;;;;4.50;2.53;;;18.20;45.40;;;;;;5073442;28;20025;-84
2021/04/21 10:35:14;;;;;;;6.82;2.63;;;18.40;44.80;;;;;;5073330;28;20071;-83
2021/04/21 10:37:41;;;;;;;3.97;2.92;;;18.30;42.90;;;;;;5074689;28;20016;-86
2021/04/21 10:40:13;;;;;;;5.85;3.03;;;18.20;43.50;;;;;;5073488;28;20099;-87
2021/04/21 10:43:02;;;;;;;5.45;2.72;;;18.20;44.10;;;;;;5073317;28;20050;-85
2021/04/21 10:45:30;;;;;;;4.53;3.00;;;18.10;44.50;;;;;;5073913;28;20028;-86
2021/04/21 10:47:58;;;;;;;4.93;3.22;;;18.20;45.90;;;;;;5074488;28;20029;-85
2021/04/21 10:50:45;;;;;;;4.55;2.83;;;18.30;47.50;;;;;;5072819;28;20017;-85
2021/04/21 10:53:43;;;;;;;5.72;2.72;;;18.50;44.60;;;;;;5074573;28;20108;-84
2021/04/21 10:56:22;;;;;;;3.22;2.70;;;18.60;44.30;;;;;;5074138;28;20028;-86
2021/04/21 10:58:53;;;;;;;4.93;2.85;;;18.50;42.40;;;;;;5073862;28;20056;-83
2021/04/21 11:01:36;;;;;;;3.85;2.33;;;18.60;45.10;;;;;;5074133;28;20036;-86
2021/04/21 11:04:04;;;;;;;6.68;2.78;;;18.80;43.20;;;;;;5074275;28;20483;-85
2021/04/21 11:06:38;;;;;;;5.00;3.15;;;19.00;44.70;;;;;;5073871;28;20028;-85
2021/04/21 11:09:06;;;;;;;3.57;2.60;;;19.20;42.30;;;;;;5072773;28;20475;-86
2021/04/21 11:11:40;;;;;;;5.38;2.90;;;19.10;41.90;;;;;;5073003;28;20275;-86
2021/04/21 11:14:08;;;;;;;4.57;2.85;;;19.30;44.20;;;;;;5072943;28;20044;-84
2021/04/21 11:16:35;;;;;;;4.22;2.80;;;19.30;40.70;;;;;;5074227;28;20017;-85
2021/04/21 11:19:23;;;;;;;3.92;3.05;;;19.40;38.70;;;;;;5072960;28;20017;-86
2021/04/21 11:22:16;;;;;;;4.75;2.90;;;19.10;39.60;;;;;;5072881;28;20033;-85
2021/04/21 11:24:42;;;;;;;3.35;2.30;;;19.10;41.30;;;;;;5073923;28;20028;-85
2021/04/21 11:27:43;;;;;;;4.38;2.83;;;19.00;39.50;;;;;;5072917;28;20024;-88
2021/04/21 11:30:34;;;;;;;4.82;2.72;;;18.70;39.50;;;;;;5072907;28;20028;-86
2021/04/21 11:33:00;;;;;;;4.97;2.58;;;18.90;44.20;;;;;;5072630;28;20024;-86
2021/04/21 11:35:30;;;;;;;3.70;2.33;;;19.20;42.80;;;;;;5072631;28;20028;-82
2021/04/21 11:37:56;;;;;;;3.35;2.60;;;19.50;41.50;;;;;;5072457;28;20028;-85
2021/04/21 11:40:30;;;;;;;4.20;2.42;;;19.50;39.80;;;;;;5072396;28;20564;-86
2021/04/21 11:43:16;;;;;;;3.95;2.83;;;19.50;41.80;;;;;;5072657;28;20112;-86
2021/04/21 11:45:43;;;;;;;4.93;2.65;;;19.60;39.30;;;;;;5072336;28;20090;-86
2021/04/21 11:48:09;;;;;;;2.95;2.33;;;19.40;40.70;;;;;;5073656;28;20024;-83
2021/04/21 11:50:41;;;;;;;2.63;2.20;;;19.20;40.10;;;;;;5072762;28;20498;-82
2021/04/21 11:53:07;;;;;;;10.25;2.72;;;19.50;42.00;;;;;;5072432;28;20020;-81
2021/04/21 11:55:52;;;;;;;5.28;2.63;;;19.70;41.00;;;;;;5076014;28;20106;-82
2021/04/21 11:58:23;;;;;;;5.70;2.50;;;20.00;42.50;;;;;;5075711;28;20025;-81
2021/04/21 12:00:54;;;;;;;3.15;2.40;;;20.20;39.90;;;;;;5075953;28;20097;-83
2021/04/21 12:03:24;;;;;;;3.72;2.55;;;20.20;38.10;;;;;;5075785;28;20078;-79
2021/04/21 12:05:52;;;;;;;3.53;2.00;;;20.10;37.90;;;;;;5076571;28;20021;-84
2021/04/21 12:08:20;;;;;;;3.30;1.88;;;20.20;39.70;;;;;;5075748;28;20033;-83
2021/04/21 12:10:48;;;;;;;2.35;1.80;;;20.40;39.70;;;;;;5075590;28;20475;-83
2021/04/21 12:13:27;;;;;;;2.28;1.92;;;20.40;38.80;;;;;;5075250;28;20107;-87
2021/04/21 12:16:15;;;;;;;8.23;2.60;;;20.40;38.20;;;;;;5076598;28;20028;-82
2021/04/21 12:18:49;;;;;;;6.15;2.47;;;20.40;38.60;;;;;;5076487;28;20025;-83
2021/04/21 12:21:15;;;;;;;5.80;2.42;;;20.60;38.50;;;;;;5075359;28;20037;-82
2021/04/21 12:23:43;;;;;;;2.95;2.10;;;20.50;38.30;;;;;;5075639;28;20021;-84
2021/04/21 12:26:23;;;;;;;3.63;2.40;;;20.50;36.90;;;;;;5075580;28;20372;-85
2021/04/21 12:28:55;;;;;;;4.53;2.47;;;20.20;40.10;;;;;;5075361;28;20150;-82
2021/04/21 12:31:21;;;;;;;3.80;2.20;;;20.20;38.90;;;;;;5075408;28;20021;-82
2021/04/21 12:33:51;;;;;;;2.53;2.28;;;20.30;40.90;;;;;;5075883;28;20024;-81
2021/04/21 12:36:18;;;;;;;3.38;2.42;;;20.40;38.90;;;;;;5075496;28;20016;-81
2021/04/21 12:39:09;;;;;;;45.05;9.35;;;20.40;38.40;;;;;;5075313;28;20025;-81
2021/04/21 12:41:36;;;;;;;4.30;2.50;;;20.30;39.30;;;;;;5075295;28;20109;-81
2021/04/21 12:44:18;;;;;;;7.78;2.97;;;20.30;38.00;;;;;;5075223;28;20027;-82
2021/04/21 12:46:47;;;;;;;3.47;2.30;;;20.30;38.00;;;;;;5075032;28;20047;-81
2021/04/21 12:49:13;;;;;;;3.85;2.25;;;20.10;38.90;;;;;;5075260;28;20056;-82
2021/04/21 12:51:47;;;;;;;3.80;2.20;;;19.90;38.20;;;;;;5076623;28;20047;-81
2021/04/21 12:54:31;;;;;;;3.47;2.50;;;19.60;38.40;;;;;;5075488;28;20029;-82
2021/04/21 12:56:57;;;;;;;4.45;2.40;;;19.50;41.20;;;;;;5075455;28;20463;-83
2021/04/21 12:59:23;;;;;;;6.38;2.35;;;19.70;40.00;;;;;;5075127;28;20082;-81
2021/04/21 13:01:49;;;;;;;4.53;2.15;;;19.70;39.90;;;;;;5075953;28;20048;-82
2021/04/21 13:04:16;;;;;;;4.40;2.10;;;20.00;40.20;;;;;;5076236;28;20091;-84
2021/04/21 13:06:51;;;;;;;3.00;2.25;;;20.00;38.80;;;;;;5074840;28;20047;-83
2021/04/21 13:09:19;;;;;;;3.65;2.08;;;19.90;36.60;;;;;;5074725;28;20021;-81
2021/04/21 13:11:57;;;;;;;4.22;2.10;;;19.90;39.10;;;;;;5074892;28;20067;-83
2021/04/21 13:14:36;;;;;;;4.22;2.08;;;19.90;39.10;;;;;;5074589;28;20122;-82
2021/04/21 13:17:02;;;;;;;5.90;2.20;;;19.90;39.10;;;;;;5075986;28;20020;-82
2021/04/21 13:19:30;;;;;;;4.30;2.70;;;19.80;38.70;;;;;;5074825;28;20027;-82
2021/04/21 13:22:09;;;;;;;8.90;4.95;;;19.70;40.80;;;;;;5074348;28;20035;-80
2021/04/21 13:24:40;;;;;;;41.78;22.70;;;19.50;39.30;;;;;;5074506;28;20025;-81